sensor_id;sensor_type;location;lat;lon;timestamp;pressure;altitude;pressure_sealevel;temperature;humidity
65394;BME280;52002;49.760;6.512;2023-05-22T00:02:00;99728.45;;;16.07;72.49
65394;BME280;52002;49.760;6.512;2023-05-22T00:04:27;99729.20;;;16.07;72.64
65394;BME280;52002;49.760;6.512;2023-05-22T00:06:54;99724.23;;;16.05;72.77
65394;BME280;52002;49.760;6.512;2023-05-22T00:09:20;99722.70;;;16.02;72.85
65394;BME280;52002;49.760;6.512;2023-05-22T00:11:46;99720.75;;;15.98;73.00
65394;BME280;52002;49.760;6.512;2023-05-22T00:14:11;99720.82;;;15.92;73.03
65394;BME280;52002;49.760;6.512;2023-05-22T00:16:39;99715.38;;;15.91;73.01
65394;BME280;52002;49.760;6.512;2023-05-22T00:19:08;99717.19;;;15.91;73.08
65394;BME280;52002;49.760;6.512;2023-05-22T00:21:40;99714.27;;;15.90;73.11
65394;BME280;52002;49.760;6.512;2023-05-22T00:24:05;99717.55;;;15.85;73.27
65394;BME280;52002;49.760;6.512;2023-05-22T00:26:31;99714.98;;;15.82;73.22
65394;BME280;52002;49.760;6.512;2023-05-22T00:28:56;99710.74;;;15.80;73.32
65394;BME280;52002;49.760;6.512;2023-05-22T00:31:22;99714.43;;;15.76;73.46
65394;BME280;52002;49.760;6.512;2023-05-22T00:33:47;99713.61;;;15.72;73.49
65394;BME280;52002;49.760;6.512;2023-05-22T00:36:13;99715.26;;;15.69;73.61
65394;BME280;52002;49.760;6.512;2023-05-22T00:38:38;99714.41;;;15.68;73.59
65394;BME280;52002;49.760;6.512;2023-05-22T00:41:04;99712.44;;;15.69;73.60
65394;BME280;52002;49.760;6.512;2023-05-22T00:43:31;99713.95;;;15.69;73.37
65394;BME280;52002;49.760;6.512;2023-05-22T00:45:57;99713.05;;;15.71;73.34
65394;BME280;52002;49.760;6.512;2023-05-22T00:48:23;99717.38;;;15.72;73.45
65394;BME280;52002;49.760;6.512;2023-05-22T00:50:49;99715.65;;;15.73;73.34
65394;BME280;52002;49.760;6.512;2023-05-22T00:53:15;99716.31;;;15.72;73.33
65394;BME280;52002;49.760;6.512;2023-05-22T00:55:43;99713.38;;;15.68;73.47
65394;BME280;52002;49.760;6.512;2023-05-22T00:58:13;99713.61;;;15.64;73.40
65394;BME280;52002;49.760;6.512;2023-05-22T01:00:40;99711.23;;;15.60;73.47
65394;BME280;52002;49.760;6.512;2023-05-22T01:03:09;99709.17;;;15.59;73.43
65394;BME280;52002;49.760;6.512;2023-05-22T01:05:39;99705.73;;;15.58;73.48
65394;BME280;52002;49.760;6.512;2023-05-22T01:08:06;99707.40;;;15.53;73.53
65394;BME280;52002;49.760;6.512;2023-05-22T01:10:34;99708.23;;;15.47;73.66
65394;BME280;52002;49.760;6.512;2023-05-22T01:13:09;99705.73;;;15.44;73.76
65394;BME280;52002;49.760;6.512;2023-05-22T01:15:53;99704.80;;;15.42;73.84
65394;BME280;52002;49.760;6.512;2023-05-22T01:18:40;99704.81;;;15.39;73.88
65394;BME280;52002;49.760;6.512;2023-05-22T01:21:26;99700.84;;;15.35;73.90
65394;BME280;52002;49.760;6.512;2023-05-22T01:31:56;99698.43;;;15.29;74.05
65394;BME280;52002;49.760;6.512;2023-05-22T01:34:24;99701.30;;;15.27;74.22
65394;BME280;52002;49.760;6.512;2023-05-22T01:36:51;99704.91;;;15.24;74.22
65394;BME280;52002;49.760;6.512;2023-05-22T01:39:18;99702.88;;;15.21;74.02
65394;BME280;52002;49.760;6.512;2023-05-22T01:41:44;99700.14;;;15.17;73.79
65394;BME280;52002;49.760;6.512;2023-05-22T01:44:10;99701.65;;;15.16;73.95
65394;BME280;52002;49.760;6.512;2023-05-22T01:46:35;99706.33;;;15.16;73.83
65394;BME280;52002;49.760;6.512;2023-05-22T01:49:01;99704.18;;;15.14;73.90
65394;BME280;52002;49.760;6.512;2023-05-22T01:52:02;99710.17;;;15.09;74.11
65394;BME280;52002;49.760;6.512;2023-05-22T01:57:20;99708.41;;;14.96;74.54
65394;BME280;52002;49.760;6.512;2023-05-22T01:59:54;99705.30;;;14.88;74.83
65394;BME280;52002;49.760;6.512;2023-05-22T02:02:24;99705.43;;;14.87;74.94
65394;BME280;52002;49.760;6.512;2023-05-22T02:04:57;99700.73;;;14.87;74.99
65394;BME280;52002;49.760;6.512;2023-05-22T02:07:24;99702.16;;;14.91;74.85
65394;BME280;52002;49.760;6.512;2023-05-22T02:09:51;99700.96;;;14.92;74.67
65394;BME280;52002;49.760;6.512;2023-05-22T02:12:19;99704.21;;;14.91;74.72
65394;BME280;52002;49.760;6.512;2023-05-22T02:14:46;99700.59;;;14.90;74.61
65394;BME280;52002;49.760;6.512;2023-05-22T02:17:11;99705.36;;;14.89;74.69
65394;BME280;52002;49.760;6.512;2023-05-22T02:19:37;99708.90;;;14.86;74.82
65394;BME280;52002;49.760;6.512;2023-05-22T02:22:03;99710.64;;;14.87;74.86
65394;BME280;52002;49.760;6.512;2023-05-22T02:24:29;99712.48;;;14.86;74.95
65394;BME280;52002;49.760;6.512;2023-05-22T02:26:55;99713.52;;;14.85;74.94
65394;BME280;52002;49.760;6.512;2023-05-22T02:29:20;99715.05;;;14.86;74.92
65394;BME280;52002;49.760;6.512;2023-05-22T02:31:46;99712.02;;;14.84;75.14
65394;BME280;52002;49.760;6.512;2023-05-22T02:34:11;99714.01;;;14.86;75.16
65394;BME280;52002;49.760;6.512;2023-05-22T02:36:36;99713.81;;;14.86;75.13
65394;BME280;52002;49.760;6.512;2023-05-22T02:39:02;99711.41;;;14.88;75.02
65394;BME280;52002;49.760;6.512;2023-05-22T02:41:28;99709.49;;;14.89;74.94
65394;BME280;52002;49.760;6.512;2023-05-22T02:43:53;99710.20;;;14.89;74.94
65394;BME280;52002;49.760;6.512;2023-05-22T02:46:18;99709.45;;;14.89;74.81
65394;BME280;52002;49.760;6.512;2023-05-22T02:48:44;99707.52;;;14.86;74.82
65394;BME280;52002;49.760;6.512;2023-05-22T02:51:10;99705.33;;;14.83;74.78
65394;BME280;52002;49.760;6.512;2023-05-22T02:53:36;99702.56;;;14.82;74.48
65394;BME280;52002;49.760;6.512;2023-05-22T02:56:07;99702.64;;;14.82;74.43
65394;BME280;52002;49.760;6.512;2023-05-22T02:58:34;99705.16;;;14.80;74.31
65394;BME280;52002;49.760;6.512;2023-05-22T03:01:00;99705.19;;;14.80;74.37
65394;BME280;52002;49.760;6.512;2023-05-22T03:03:27;99705.27;;;14.79;74.32
65394;BME280;52002;49.760;6.512;2023-05-22T03:05:53;99704.66;;;14.78;74.29
65394;BME280;52002;49.760;6.512;2023-05-22T03:08:23;99702.85;;;14.77;74.32
65394;BME280;52002;49.760;6.512;2023-05-22T03:10:48;99706.73;;;14.76;74.52
65394;BME280;52002;49.760;6.512;2023-05-22T03:13:13;99707.89;;;14.73;74.53
65394;BME280;52002;49.760;6.512;2023-05-22T03:15:39;99711.22;;;14.67;74.52
65394;BME280;52002;49.760;6.512;2023-05-22T03:18:04;99707.45;;;14.60;74.75
65394;BME280;52002;49.760;6.512;2023-05-22T03:20:30;99705.84;;;14.57;74.88
65394;BME280;52002;49.760;6.512;2023-05-22T03:22:56;99703.45;;;14.54;74.88
65394;BME280;52002;49.760;6.512;2023-05-22T03:25:21;99701.88;;;14.51;74.99
65394;BME280;52002;49.760;6.512;2023-05-22T03:27:47;99697.96;;;14.46;74.98
65394;BME280;52002;49.760;6.512;2023-05-22T03:30:13;99698.58;;;14.44;75.20
65394;BME280;52002;49.760;6.512;2023-05-22T03:32:38;99698.06;;;14.43;75.41
65394;BME280;52002;49.760;6.512;2023-05-22T03:35:04;99698.64;;;14.43;75.44
65394;BME280;52002;49.760;6.512;2023-05-22T03:37:30;99702.06;;;14.42;75.16
65394;BME280;52002;49.760;6.512;2023-05-22T03:39:55;99704.24;;;14.40;74.97
65394;BME280;52002;49.760;6.512;2023-05-22T03:42:20;99703.20;;;14.40;75.06
65394;BME280;52002;49.760;6.512;2023-05-22T03:44:46;99702.80;;;14.40;75.15
65394;BME280;52002;49.760;6.512;2023-05-22T03:47:13;99701.96;;;14.41;75.07
65394;BME280;52002;49.760;6.512;2023-05-22T03:49:38;99702.17;;;14.43;75.10
65394;BME280;52002;49.760;6.512;2023-05-22T03:52:04;99704.14;;;14.45;74.93
65394;BME280;52002;49.760;6.512;2023-05-22T03:54:29;99704.92;;;14.46;74.87
65394;BME280;52002;49.760;6.512;2023-05-22T03:56:55;99707.58;;;14.50;74.93
65394;BME280;52002;49.760;6.512;2023-05-22T03:59:20;99705.36;;;14.49;74.88
65394;BME280;52002;49.760;6.512;2023-05-22T04:01:46;99703.38;;;14.44;75.00
65394;BME280;52002;49.760;6.512;2023-05-22T04:04:13;99702.73;;;14.41;75.15
65394;BME280;52002;49.760;6.512;2023-05-22T04:06:39;99703.34;;;14.40;75.29
65394;BME280;52002;49.760;6.512;2023-05-22T04:09:11;99699.64;;;14.44;75.29
65394;BME280;52002;49.760;6.512;2023-05-22T04:11:39;99701.05;;;14.49;75.45
65394;BME280;52002;49.760;6.512;2023-05-22T04:14:06;99703.69;;;14.54;75.09
65394;BME280;52002;49.760;6.512;2023-05-22T04:16:32;99704.42;;;14.55;74.94
65394;BME280;52002;49.760;6.512;2023-05-22T04:18:58;99708.19;;;14.55;74.99
65394;BME280;52002;49.760;6.512;2023-05-22T04:21:26;99706.67;;;14.54;75.08
65394;BME280;52002;49.760;6.512;2023-05-22T04:23:52;99708.22;;;14.60;75.03
65394;BME280;52002;49.760;6.512;2023-05-22T04:26:18;99711.16;;;14.67;74.98
65394;BME280;52002;49.760;6.512;2023-05-22T04:28:47;99709.46;;;14.77;74.91
65394;BME280;52002;49.760;6.512;2023-05-22T04:31:13;99710.05;;;14.89;74.68
65394;BME280;52002;49.760;6.512;2023-05-22T04:33:39;99716.19;;;15.02;74.70
65394;BME280;52002;49.760;6.512;2023-05-22T04:36:05;99714.73;;;15.13;74.25
65394;BME280;52002;49.760;6.512;2023-05-22T04:38:31;99717.23;;;15.17;73.99
65394;BME280;52002;49.760;6.512;2023-05-22T04:41:04;99720.83;;;15.19;73.50
65394;BME280;52002;49.760;6.512;2023-05-22T04:43:32;99720.23;;;15.23;73.71
65394;BME280;52002;49.760;6.512;2023-05-22T04:45:58;99724.05;;;15.30;73.66
65394;BME280;52002;49.760;6.512;2023-05-22T04:48:23;99722.24;;;15.43;73.58
65394;BME280;52002;49.760;6.512;2023-05-22T04:50:49;99720.36;;;15.57;73.32
65394;BME280;52002;49.760;6.512;2023-05-22T04:53:14;99719.34;;;15.66;73.00
65394;BME280;52002;49.760;6.512;2023-05-22T04:55:40;99721.10;;;15.71;72.79
65394;BME280;52002;49.760;6.512;2023-05-22T04:58:06;99721.25;;;15.77;72.75
65394;BME280;52002;49.760;6.512;2023-05-22T05:00:31;99726.35;;;15.86;72.41
65394;BME280;52002;49.760;6.512;2023-05-22T05:02:57;99725.27;;;15.91;72.25
65394;BME280;52002;49.760;6.512;2023-05-22T05:05:24;99724.98;;;15.96;72.08
65394;BME280;52002;49.760;6.512;2023-05-22T05:07:50;99729.47;;;16.01;72.19
65394;BME280;52002;49.760;6.512;2023-05-22T05:10:16;99728.47;;;16.10;71.99
65394;BME280;52002;49.760;6.512;2023-05-22T05:12:42;99731.86;;;16.16;71.82
65394;BME280;52002;49.760;6.512;2023-05-22T05:15:08;99736.92;;;16.19;71.66
65394;BME280;52002;49.760;6.512;2023-05-22T05:17:33;99734.05;;;16.25;71.77
65394;BME280;52002;49.760;6.512;2023-05-22T05:19:59;99735.81;;;16.39;71.70
65394;BME280;52002;49.760;6.512;2023-05-22T05:22:24;99735.11;;;16.55;71.27
65394;BME280;52002;49.760;6.512;2023-05-22T05:24:49;99733.52;;;16.73;71.20
65394;BME280;52002;49.760;6.512;2023-05-22T05:27:15;99739.19;;;16.95;70.80
65394;BME280;52002;49.760;6.512;2023-05-22T05:29:40;99735.73;;;17.16;70.15
65394;BME280;52002;49.760;6.512;2023-05-22T05:32:07;99735.59;;;17.40;69.73
65394;BME280;52002;49.760;6.512;2023-05-22T05:34:33;99731.02;;;17.71;69.31
65394;BME280;52002;49.760;6.512;2023-05-22T05:37:00;99732.92;;;18.07;68.68
65394;BME280;52002;49.760;6.512;2023-05-22T05:39:27;99728.52;;;18.41;67.79
65394;BME280;52002;49.760;6.512;2023-05-22T05:41:52;99730.56;;;18.66;67.17
65394;BME280;52002;49.760;6.512;2023-05-22T05:44:18;99731.84;;;18.83;66.41
65394;BME280;52002;49.760;6.512;2023-05-22T05:46:43;99733.14;;;18.90;66.04
65394;BME280;52002;49.760;6.512;2023-05-22T05:49:09;99733.91;;;18.92;65.63
65394;BME280;52002;49.760;6.512;2023-05-22T05:51:36;99736.90;;;18.96;65.43
65394;BME280;52002;49.760;6.512;2023-05-22T05:54:01;99737.30;;;19.05;65.06
65394;BME280;52002;49.760;6.512;2023-05-22T05:56:27;99740.85;;;19.23;64.79
65394;BME280;52002;49.760;6.512;2023-05-22T05:58:52;99742.59;;;19.47;64.27
65394;BME280;52002;49.760;6.512;2023-05-22T06:01:18;99746.34;;;19.79;63.70
65394;BME280;52002;49.760;6.512;2023-05-22T06:03:44;99745.65;;;20.17;63.18
65394;BME280;52002;49.760;6.512;2023-05-22T06:06:09;99749.70;;;20.76;62.17
65394;BME280;52002;49.760;6.512;2023-05-22T06:08:36;99752.08;;;21.53;60.96
65394;BME280;52002;49.760;6.512;2023-05-22T06:11:02;99750.56;;;22.41;59.78
65394;BME280;52002;49.760;6.512;2023-05-22T06:13:28;99756.38;;;23.18;58.08
65394;BME280;52002;49.760;6.512;2023-05-22T06:15:53;99759.50;;;23.74;56.41
65394;BME280;52002;49.760;6.512;2023-05-22T06:18:19;99761.29;;;24.41;55.36
65394;BME280;52002;49.760;6.512;2023-05-22T06:20:45;99761.45;;;25.14;53.93
65394;BME280;52002;49.760;6.512;2023-05-22T06:23:10;99764.86;;;25.74;52.36
65394;BME280;52002;49.760;6.512;2023-05-22T06:25:36;99766.98;;;26.29;51.30
65394;BME280;52002;49.760;6.512;2023-05-22T06:28:03;99764.36;;;26.88;50.04
65394;BME280;52002;49.760;6.512;2023-05-22T06:30:30;99766.33;;;27.40;49.00
65394;BME280;52002;49.760;6.512;2023-05-22T06:32:55;99771.26;;;27.93;47.90
65394;BME280;52002;49.760;6.512;2023-05-22T06:35:21;99769.37;;;28.15;46.77
65394;BME280;52002;49.760;6.512;2023-05-22T06:37:46;99775.13;;;28.33;46.48
65394;BME280;52002;49.760;6.512;2023-05-22T06:40:12;99774.73;;;28.48;45.71
65394;BME280;52002;49.760;6.512;2023-05-22T06:42:37;99774.36;;;28.66;45.21
65394;BME280;52002;49.760;6.512;2023-05-22T06:45:03;99775.77;;;28.96;44.62
65394;BME280;52002;49.760;6.512;2023-05-22T06:47:29;99778.77;;;29.11;43.87
65394;BME280;52002;49.760;6.512;2023-05-22T06:49:55;99775.95;;;29.28;43.25
65394;BME280;52002;49.760;6.512;2023-05-22T06:52:20;99772.39;;;29.38;42.91
65394;BME280;52002;49.760;6.512;2023-05-22T06:54:46;99772.54;;;29.76;42.45
65394;BME280;52002;49.760;6.512;2023-05-22T06:57:11;99783.02;;;30.35;41.80
65394;BME280;52002;49.760;6.512;2023-05-22T06:59:36;99784.11;;;30.75;41.25
65394;BME280;52002;49.760;6.512;2023-05-22T07:02:02;99779.30;;;31.17;39.97
65394;BME280;52002;49.760;6.512;2023-05-22T07:04:27;99778.73;;;31.71;39.52
65394;BME280;52002;49.760;6.512;2023-05-22T07:06:53;99783.94;;;32.19;38.44
65394;BME280;52002;49.760;6.512;2023-05-22T07:09:18;99778.57;;;32.89;37.86
65394;BME280;52002;49.760;6.512;2023-05-22T07:11:45;99780.73;;;33.93;36.41
65394;BME280;52002;49.760;6.512;2023-05-22T07:14:11;99784.29;;;34.56;35.43
65394;BME280;52002;49.760;6.512;2023-05-22T07:16:39;99783.98;;;34.87;34.41
65394;BME280;52002;49.760;6.512;2023-05-22T07:19:06;99786.48;;;35.04;33.90
65394;BME280;52002;49.760;6.512;2023-05-22T07:21:33;99786.91;;;35.04;33.40
65394;BME280;52002;49.760;6.512;2023-05-22T07:24:01;99790.42;;;35.09;33.24
65394;BME280;52002;49.760;6.512;2023-05-22T07:26:36;99789.11;;;35.05;33.16
65394;BME280;52002;49.760;6.512;2023-05-22T07:29:02;99786.81;;;35.15;32.78
65394;BME280;52002;49.760;6.512;2023-05-22T07:31:27;99787.13;;;35.39;32.41
65394;BME280;52002;49.760;6.512;2023-05-22T07:33:53;99784.02;;;35.83;31.83
65394;BME280;52002;49.760;6.512;2023-05-22T07:36:19;99785.25;;;36.33;31.52
65394;BME280;52002;49.760;6.512;2023-05-22T07:38:45;99784.96;;;36.59;31.00
65394;BME280;52002;49.760;6.512;2023-05-22T07:41:10;99784.70;;;36.52;30.70
65394;BME280;52002;49.760;6.512;2023-05-22T07:43:35;99785.98;;;36.37;30.36
65394;BME280;52002;49.760;6.512;2023-05-22T07:46:01;99783.08;;;36.17;30.86
65394;BME280;52002;49.760;6.512;2023-05-22T07:48:26;99783.47;;;36.09;30.87
65394;BME280;52002;49.760;6.512;2023-05-22T07:50:51;99785.22;;;35.93;30.93
65394;BME280;52002;49.760;6.512;2023-05-22T07:53:17;99790.14;;;36.02;30.87
65394;BME280;52002;49.760;6.512;2023-05-22T07:55:42;99787.50;;;36.11;30.58
65394;BME280;52002;49.760;6.512;2023-05-22T07:58:08;99787.30;;;36.19;30.47
65394;BME280;52002;49.760;6.512;2023-05-22T08:00:35;99793.84;;;36.52;30.09
65394;BME280;52002;49.760;6.512;2023-05-22T08:03:00;99789.95;;;36.83;29.74
65394;BME280;52002;49.760;6.512;2023-05-22T08:05:26;99790.60;;;37.13;29.44
65394;BME280;52002;49.760;6.512;2023-05-22T08:07:51;99790.82;;;37.26;29.20
65394;BME280;52002;49.760;6.512;2023-05-22T08:10:17;99792.66;;;37.50;28.89
65394;BME280;52002;49.760;6.512;2023-05-22T08:12:43;99793.19;;;37.66;28.63
65394;BME280;52002;49.760;6.512;2023-05-22T08:15:09;99790.84;;;37.33;28.53
65394;BME280;52002;49.760;6.512;2023-05-22T08:17:35;99791.95;;;37.20;28.89
65394;BME280;52002;49.760;6.512;2023-05-22T08:20:00;99791.68;;;37.21;29.12
65394;BME280;52002;49.760;6.512;2023-05-22T08:22:28;99788.89;;;37.27;28.73
65394;BME280;52002;49.760;6.512;2023-05-22T08:24:53;99787.91;;;37.25;28.54
65394;BME280;52002;49.760;6.512;2023-05-22T08:27:19;99788.45;;;37.21;28.87
65394;BME280;52002;49.760;6.512;2023-05-22T08:29:44;99789.58;;;37.36;28.63
65394;BME280;52002;49.760;6.512;2023-05-22T08:32:10;99793.05;;;37.42;28.37
65394;BME280;52002;49.760;6.512;2023-05-22T08:34:35;99790.02;;;37.62;28.20
65394;BME280;52002;49.760;6.512;2023-05-22T08:37:00;99790.94;;;37.71;28.00
65394;BME280;52002;49.760;6.512;2023-05-22T08:39:27;99786.61;;;37.83;28.01
65394;BME280;52002;49.760;6.512;2023-05-22T08:41:53;99788.40;;;37.68;27.78
65394;BME280;52002;49.760;6.512;2023-05-22T08:44:19;99791.46;;;37.15;28.18
65394;BME280;52002;49.760;6.512;2023-05-22T08:46:45;99786.62;;;36.45;28.86
65394;BME280;52002;49.760;6.512;2023-05-22T08:49:11;99785.97;;;35.26;29.82
65394;BME280;52002;49.760;6.512;2023-05-22T08:51:38;99783.30;;;34.11;31.20
65394;BME280;52002;49.760;6.512;2023-05-22T08:54:05;99779.42;;;33.20;32.54
65394;BME280;52002;49.760;6.512;2023-05-22T08:56:34;99776.29;;;32.44;33.37
65394;BME280;52002;49.760;6.512;2023-05-22T08:59:01;99774.02;;;31.73;34.59
65394;BME280;52002;49.760;6.512;2023-05-22T09:01:28;99771.30;;;31.10;35.44
65394;BME280;52002;49.760;6.512;2023-05-22T09:03:59;99777.20;;;30.50;36.51
65394;BME280;52002;49.760;6.512;2023-05-22T09:06:24;99774.14;;;29.98;37.38
65394;BME280;52002;49.760;6.512;2023-05-22T09:08:50;99774.88;;;29.55;38.01
65394;BME280;52002;49.760;6.512;2023-05-22T09:11:16;99772.80;;;29.10;38.70
65394;BME280;52002;49.760;6.512;2023-05-22T09:13:42;99772.94;;;28.59;39.48
65394;BME280;52002;49.760;6.512;2023-05-22T09:16:10;99773.59;;;28.15;40.40
65394;BME280;52002;49.760;6.512;2023-05-22T09:18:38;99771.59;;;27.82;41.22
65394;BME280;52002;49.760;6.512;2023-05-22T09:21:05;99767.15;;;27.52;41.95
65394;BME280;52002;49.760;6.512;2023-05-22T09:23:30;99764.39;;;27.09;42.55
65394;BME280;52002;49.760;6.512;2023-05-22T09:25:57;99762.84;;;26.83;43.56
65394;BME280;52002;49.760;6.512;2023-05-22T09:28:23;99763.48;;;26.72;44.22
65394;BME280;52002;49.760;6.512;2023-05-22T09:30:50;99763.53;;;26.65;44.46
65394;BME280;52002;49.760;6.512;2023-05-22T09:33:17;99763.90;;;26.57;44.91
65394;BME280;52002;49.760;6.512;2023-05-22T09:35:45;99760.68;;;26.44;45.03
65394;BME280;52002;49.760;6.512;2023-05-22T09:38:11;99765.30;;;26.30;45.73
65394;BME280;52002;49.760;6.512;2023-05-22T09:40:37;99762.37;;;26.16;46.17
65394;BME280;52002;49.760;6.512;2023-05-22T09:43:10;99759.33;;;25.99;46.16
65394;BME280;52002;49.760;6.512;2023-05-22T09:45:36;99759.12;;;25.85;46.64
65394;BME280;52002;49.760;6.512;2023-05-22T09:48:03;99759.59;;;25.78;47.14
65394;BME280;52002;49.760;6.512;2023-05-22T09:50:30;99757.52;;;25.79;47.22
65394;BME280;52002;49.760;6.512;2023-05-22T09:52:56;99759.95;;;25.81;47.17
65394;BME280;52002;49.760;6.512;2023-05-22T09:55:22;99761.39;;;25.81;47.51
65394;BME280;52002;49.760;6.512;2023-05-22T09:57:51;99755.13;;;25.91;47.97
65394;BME280;52002;49.760;6.512;2023-05-22T10:00:17;99755.86;;;25.99;47.53
65394;BME280;52002;49.760;6.512;2023-05-22T10:02:45;99751.95;;;25.98;46.40
65394;BME280;52002;49.760;6.512;2023-05-22T10:05:12;99745.39;;;25.98;46.53
65394;BME280;52002;49.760;6.512;2023-05-22T10:07:50;99747.62;;;25.99;47.18
65394;BME280;52002;49.760;6.512;2023-05-22T10:10:23;99742.45;;;25.99;47.16
65394;BME280;52002;49.760;6.512;2023-05-22T10:13:03;99743.39;;;25.99;47.08
65394;BME280;52002;49.760;6.512;2023-05-22T10:15:30;99739.05;;;25.95;47.24
65394;BME280;52002;49.760;6.512;2023-05-22T10:17:57;99736.54;;;25.91;46.98
65394;BME280;52002;49.760;6.512;2023-05-22T10:20:24;99736.06;;;25.89;47.09
65394;BME280;52002;49.760;6.512;2023-05-22T10:22:52;99730.63;;;25.88;46.87
65394;BME280;52002;49.760;6.512;2023-05-22T10:25:18;99726.10;;;25.89;47.11
65394;BME280;52002;49.760;6.512;2023-05-22T10:27:43;99724.16;;;25.87;47.56
65394;BME280;52002;49.760;6.512;2023-05-22T10:33:28;99718.85;;;25.84;47.82
65394;BME280;52002;49.760;6.512;2023-05-22T10:36:00;99712.56;;;25.90;47.94
65394;BME280;52002;49.760;6.512;2023-05-22T10:41:02;99714.64;;;25.99;48.41
65394;BME280;52002;49.760;6.512;2023-05-22T10:43:29;99716.58;;;26.04;48.33
65394;BME280;52002;49.760;6.512;2023-05-22T10:46:03;99715.11;;;26.04;48.01
65394;BME280;52002;49.760;6.512;2023-05-22T10:48:38;99707.36;;;26.03;48.27
65394;BME280;52002;49.760;6.512;2023-05-22T10:51:07;99702.17;;;26.06;48.32
65394;BME280;52002;49.760;6.512;2023-05-22T10:53:34;99697.50;;;26.07;48.21
65394;BME280;52002;49.760;6.512;2023-05-22T10:56:11;99694.16;;;26.08;48.35
65394;BME280;52002;49.760;6.512;2023-05-22T10:58:37;99691.22;;;26.10;48.37
65394;BME280;52002;49.760;6.512;2023-05-22T11:01:14;99692.25;;;26.08;48.11
65394;BME280;52002;49.760;6.512;2023-05-22T11:09:29;99689.44;;;26.06;48.90
65394;BME280;52002;49.760;6.512;2023-05-22T11:14:48;99686.23;;;26.16;49.14
65394;BME280;52002;49.760;6.512;2023-05-22T11:17:25;99683.85;;;26.21;49.28
65394;BME280;52002;49.760;6.512;2023-05-22T11:22:33;99683.31;;;26.32;49.28
65394;BME280;52002;49.760;6.512;2023-05-22T11:25:02;99674.30;;;26.43;49.02
65394;BME280;52002;49.760;6.512;2023-05-22T11:27:29;99672.37;;;26.54;48.95
65394;BME280;52002;49.760;6.512;2023-05-22T11:29:55;99668.23;;;26.66;49.15
65394;BME280;52002;49.760;6.512;2023-05-22T11:32:21;99665.86;;;26.79;48.88
65394;BME280;52002;49.760;6.512;2023-05-22T11:34:48;99666.05;;;26.89;48.71
65394;BME280;52002;49.760;6.512;2023-05-22T11:37:17;99664.38;;;26.94;47.81
65394;BME280;52002;49.760;6.512;2023-05-22T11:40:11;99659.42;;;26.97;47.75
65394;BME280;52002;49.760;6.512;2023-05-22T11:42:37;99658.59;;;26.96;48.35
65394;BME280;52002;49.760;6.512;2023-05-22T11:45:03;99655.80;;;27.02;47.73
65394;BME280;52002;49.760;6.512;2023-05-22T11:47:29;99650.73;;;26.94;47.52
65394;BME280;52002;49.760;6.512;2023-05-22T11:49:56;99645.02;;;26.82;47.09
65394;BME280;52002;49.760;6.512;2023-05-22T11:52:22;99642.52;;;26.72;47.22
65394;BME280;52002;49.760;6.512;2023-05-22T11:54:51;99640.92;;;26.67;47.48
65394;BME280;52002;49.760;6.512;2023-05-22T11:57:19;99636.11;;;26.59;47.34
65394;BME280;52002;49.760;6.512;2023-05-22T11:59:47;99634.76;;;26.69;48.00
65394;BME280;52002;49.760;6.512;2023-05-22T12:02:14;99640.32;;;26.86;47.85
65394;BME280;52002;49.760;6.512;2023-05-22T12:04:40;99638.17;;;27.02;47.68
65394;BME280;52002;49.760;6.512;2023-05-22T12:07:06;99637.51;;;27.05;46.79
65394;BME280;52002;49.760;6.512;2023-05-22T12:09:32;99640.11;;;26.99;46.67
65394;BME280;52002;49.760;6.512;2023-05-22T12:11:58;99636.66;;;26.95;46.33
65394;BME280;52002;49.760;6.512;2023-05-22T12:14:27;99636.23;;;27.00;46.31
65394;BME280;52002;49.760;6.512;2023-05-22T12:16:56;99631.86;;;27.10;46.09
65394;BME280;52002;49.760;6.512;2023-05-22T12:19:24;99634.06;;;27.31;46.06
65394;BME280;52002;49.760;6.512;2023-05-22T12:21:50;99639.01;;;27.54;45.73
65394;BME280;52002;49.760;6.512;2023-05-22T12:24:16;99643.60;;;27.70;45.31
65394;BME280;52002;49.760;6.512;2023-05-22T12:26:54;99645.61;;;27.79;44.36
65394;BME280;52002;49.760;6.512;2023-05-22T12:29:23;99645.52;;;27.87;43.61
65394;BME280;52002;49.760;6.512;2023-05-22T12:31:49;99635.07;;;27.96;43.16
65394;BME280;52002;49.760;6.512;2023-05-22T12:34:16;99634.61;;;28.13;43.69
65394;BME280;52002;49.760;6.512;2023-05-22T12:36:44;99630.19;;;28.30;42.94
65394;BME280;52002;49.760;6.512;2023-05-22T12:39:15;99632.52;;;28.48;42.33
65394;BME280;52002;49.760;6.512;2023-05-22T12:41:41;99634.88;;;28.61;40.98
65394;BME280;52002;49.760;6.512;2023-05-22T12:44:06;99635.20;;;28.58;40.48
65394;BME280;52002;49.760;6.512;2023-05-22T12:46:32;99638.10;;;28.65;41.11
65394;BME280;52002;49.760;6.512;2023-05-22T12:48:59;99637.86;;;28.77;41.42
65394;BME280;52002;49.760;6.512;2023-05-22T12:51:26;99642.37;;;28.90;41.47
65394;BME280;52002;49.760;6.512;2023-05-22T12:53:57;99642.19;;;28.99;41.25
65394;BME280;52002;49.760;6.512;2023-05-22T12:56:23;99643.08;;;29.04;40.78
65394;BME280;52002;49.760;6.512;2023-05-22T12:58:48;99646.09;;;29.13;40.65
65394;BME280;52002;49.760;6.512;2023-05-22T13:01:14;99644.31;;;29.19;40.92
65394;BME280;52002;49.760;6.512;2023-05-22T13:03:39;99641.30;;;29.28;40.99
65394;BME280;52002;49.760;6.512;2023-05-22T13:06:05;99642.29;;;29.29;40.19
65394;BME280;52002;49.760;6.512;2023-05-22T13:08:30;99646.40;;;29.25;40.33
65394;BME280;52002;49.760;6.512;2023-05-22T13:10:56;99658.48;;;29.25;40.06
65394;BME280;52002;49.760;6.512;2023-05-22T13:13:22;99670.33;;;29.11;40.20
65394;BME280;52002;49.760;6.512;2023-05-22T13:15:47;99678.14;;;28.81;40.61
65394;BME280;52002;49.760;6.512;2023-05-22T13:18:12;99681.73;;;28.46;41.18
65394;BME280;52002;49.760;6.512;2023-05-22T13:20:38;99691.50;;;28.22;41.60
65394;BME280;52002;49.760;6.512;2023-05-22T13:23:03;99693.63;;;27.99;41.95
65394;BME280;52002;49.760;6.512;2023-05-22T13:25:29;99693.54;;;27.78;42.11
65394;BME280;52002;49.760;6.512;2023-05-22T13:27:54;99702.83;;;27.47;42.26